Time;durP1;ratioP1;P1;durP2;ratioP2;P2;SDS_P1;SDS_P2;PMS_P1;PMS_P2;Temp;Humidity;BMP_temperature;BMP_pressure;BME280_temperature;BME280_humidity;BME280_pressure;Samples;Min_cycle;Max_cycle;Signal;HPM_P1;HPM_P2
2022/01/12 00:00:06;;;;;;;16.93;12.50;;;;;;;-0.84;100.00;102843.53;835308;23;876;-51
2022/01/12 00:00:32;;;;;;;16.55;11.73;;;;;;;-0.86;100.00;102838.28;833762;23;4216;-51
2022/01/12 00:00:52;;;;;;;16.73;11.88;;;;;;;-0.84;100.00;102844.47;835935;23;955;-52
2022/01/12 00:01:15;;;;;;;18.65;12.43;;;;;;;-0.86;100.00;102843.44;835810;23;897;-53
2022/01/12 00:01:35;;;;;;;17.15;12.30;;;;;;;-0.86;100.00;102849.47;836000;23;1009;-52
2022/01/12 00:01:59;;;;;;;16.42;11.75;;;;;;;-0.86;100.00;102838.28;838662;23;705;-51
2022/01/12 00:02:19;;;;;;;16.10;12.02;;;;;;;-0.85;100.00;102840.09;839589;23;856;-59
2022/01/12 00:02:39;;;;;;;15.63;12.02;;;;;;;-0.83;100.00;102842.78;839634;23;919;-51
2022/01/12 00:03:00;;;;;;;16.83;12.37;;;;;;;-0.83;100.00;102848.84;840214;23;936;-52
2022/01/12 00:03:21;;;;;;;16.95;12.55;;;;;;;-0.81;100.00;102839.56;839904;23;705;-54
2022/01/12 00:03:43;;;;;;;16.90;12.17;;;;;;;-0.79;100.00;102847.38;838124;23;5075;-53
2022/01/12 00:04:04;;;;;;;16.13;11.82;;;;;;;-0.79;100.00;102847.38;837857;23;880;-52
2022/01/12 00:04:24;;;;;;;16.48;12.15;;;;;;;-0.79;100.00;102845.72;839501;23;852;-51
2022/01/12 00:04:46;;;;;;;16.30;11.80;;;;;;;-0.80;100.00;102843.00;840082;23;712;-52
2022/01/12 00:05:07;;;;;;;16.85;12.45;;;;;;;-0.81;100.00;102839.56;839903;23;906;-51
2022/01/12 00:05:27;;;;;;;16.90;12.57;;;;;;;-0.81;100.00;102842.13;839719;23;954;-53
2022/01/12 00:05:48;;;;;;;16.10;11.93;;;;;;;-0.83;100.00;102843.69;839877;23;831;-53
2022/01/12 00:06:08;;;;;;;15.57;12.43;;;;;;;-0.82;100.00;102844.56;839615;23;961;-52
2022/01/12 00:06:28;;;;;;;16.93;12.17;;;;;;;-0.82;100.00;102842.91;839582;23;983;-52
2022/01/12 00:06:49;;;;;;;16.67;12.10;;;;;;;-0.83;100.00;102846.25;837259;23;4177;-51
2022/01/12 00:07:09;;;;;;;15.17;12.03;;;;;;;-0.83;100.00;102840.22;840008;23;879;-51
2022/01/12 00:07:29;;;;;;;15.40;12.40;;;;;;;-0.85;100.00;102837.53;839397;23;768;-56
2022/01/12 00:07:51;;;;;;;15.03;12.00;;;;;;;-0.84;100.00;102844.47;839420;23;887;-51
2022/01/12 00:08:11;;;;;;;16.77;12.35;;;;;;;-0.82;100.00;102835.19;839640;23;989;-55
2022/01/12 00:08:32;;;;;;;16.63;12.60;;;;;;;-0.81;100.00;102838.66;839599;23;852;-51
2022/01/12 00:08:53;;;;;;;16.15;12.50;;;;;;;-0.83;100.00;102842.78;840287;23;858;-51
2022/01/12 00:09:13;;;;;;;16.50;12.68;;;;;;;-0.83;100.00;102842.78;840142;23;982;-51
2022/01/12 00:09:34;;;;;;;17.00;13.10;;;;;;;-0.83;100.00;102840.22;838894;23;4310;-53
2022/01/12 00:09:54;;;;;;;16.77;12.67;;;;;;;-0.82;100.00;102837.75;840234;23;844;-55
2022/01/12 00:10:14;;;;;;;15.90;12.90;;;;;;;-0.83;100.00;102838.56;839479;23;879;-52
2022/01/12 00:10:36;;;;;;;16.52;12.77;;;;;;;-0.85;100.00;102837.53;839466;23;902;-54
2022/01/12 00:10:57;;;;;;;17.58;12.70;;;;;;;-0.86;100.00;102835.72;839699;23;1941;-53
2022/01/12 00:11:20;;;;;;;16.27;12.52;;;;;;;-0.88;100.00;102838.19;839501;23;930;-51
2022/01/12 00:11:40;;;;;;;16.95;12.57;;;;;;;-0.87;100.00;102844.22;839523;23;918;-52
2022/01/12 00:12:01;;;;;;;17.48;12.20;;;;;;;-0.88;100.00;102835.63;840009;23;804;-54
2022/01/12 00:12:21;;;;;;;17.30;12.27;;;;;;;-0.89;100.00;102841.56;839417;23;784;-52
2022/01/12 00:12:42;;;;;;;16.60;12.47;;;;;;;-0.89;100.00;102835.50;837866;23;4204;-51
2022/01/12 00:13:02;;;;;;;16.17;12.95;;;;;;;-0.92;100.00;102836.16;840149;23;803;-52
2022/01/12 00:13:24;;;;;;;16.33;12.70;;;;;;;-0.92;100.00;102841.28;835869;23;805;-51
2022/01/12 00:13:44;;;;;;;15.95;12.18;;;;;;;-0.93;100.00;102839.53;835161;23;888;-52
2022/01/12 00:14:05;;;;;;;16.50;12.33;;;;;;;-0.92;100.00;102837.84;835619;23;883;-52
2022/01/12 00:14:27;;;;;;;19.73;12.37;;;;;;;-0.93;100.00;102833.47;835335;23;868;-52
2022/01/12 00:14:47;;;;;;;18.00;12.38;;;;;;;-0.93;100.00;102830.91;835800;23;943;-53
2022/01/12 00:15:08;;;;;;;16.30;11.93;;;;;;;-0.93;100.00;102841.19;834598;23;1422;-51
2022/01/12 00:15:29;;;;;;;16.00;12.52;;;;;;;-0.93;100.00;102836.97;830503;23;852;-54
2022/01/12 00:15:49;;;;;;;15.90;12.37;;;;;;;-0.91;100.00;102834.50;830086;23;4383;-51
2022/01/12 00:16:10;;;;;;;16.83;12.75;;;;;;;-0.90;100.00;102841.41;831809;23;931;-51
2022/01/12 00:16:31;;;;;;;17.50;13.07;;;;;;;-0.91;100.00;102840.53;831661;23;891;-51
2022/01/12 00:16:57;;;;;;;15.43;12.32;;;;;;;-0.91;100.00;102843.09;831821;23;824;-51
2022/01/12 00:17:18;;;;;;;14.73;12.02;;;;;;;-0.92;100.00;102837.84;837301;23;891;-52
2022/01/12 00:17:38;;;;;;;15.90;12.52;;;;;;;-0.93;100.00;102834.38;840003;23;855;-52
2022/01/12 00:17:59;;;;;;;15.87;12.27;;;;;;;-0.93;100.00;102831.81;839916;23;958;-53
2022/01/12 00:18:20;;;;;;;18.17;12.30;;;;;;;-0.93;100.00;102834.38;839711;23;872;-54
2022/01/12 00:18:42;;;;;;;17.63;12.43;;;;;;;-0.89;100.00;102840.63;838524;23;4306;-51
2022/01/12 00:19:03;;;;;;;16.92;12.75;;;;;;;-0.90;100.00;102834.63;840601;23;921;-51
2022/01/12 00:19:24;;;;;;;17.37;12.83;;;;;;;-0.92;100.00;102836.16;839988;23;840;-52
2022/01/12 00:19:44;;;;;;;18.63;13.18;;;;;;;-0.92;100.00;102828.44;839902;23;975;-52
2022/01/12 00:20:05;;;;;;;17.33;12.43;;;;;;;-0.92;100.00;102832.72;835968;23;1020;-54
2022/01/12 00:20:25;;;;;;;16.40;12.35;;;;;;;-0.89;100.00;102830.38;835592;23;937;-51
2022/01/12 00:20:47;;;;;;;16.17;12.27;;;;;;;-0.87;100.00;102828.81;835696;23;1006;-51
2022/01/12 00:21:07;;;;;;;15.82;12.02;;;;;;;-0.86;100.00;102831.50;835748;23;955;-54
2022/01/12 00:21:27;;;;;;;16.80;11.57;;;;;;;-0.85;100.00;102824.69;834806;23;786;-51
2022/01/12 00:21:48;;;;;;;16.83;12.13;;;;;;;-0.84;100.00;102829.06;834751;23;4259;-52
2022/01/12 00:22:08;;;;;;;17.27;12.23;;;;;;;-0.81;100.00;102823.25;839482;23;1031;-51
2022/01/12 00:22:32;;;;;;;17.30;12.27;;;;;;;-0.80;100.00;102822.47;839349;23;896;-51
2022/01/12 00:22:53;;;;;;;16.77;12.27;;;;;;;-0.78;100.00;102828.63;839434;23;764;-52
2022/01/12 00:23:15;;;;;;;16.40;12.60;;;;;;;-0.81;100.00;102818.13;839701;23;812;-51
2022/01/12 00:23:37;;;;;;;16.27;12.00;;;;;;;-0.84;100.00;102818.78;838115;23;873;-51
2022/01/12 00:23:58;;;;;;;15.25;11.38;;;;;;;-0.89;100.00;102821.00;839809;23;938;-52
2022/01/12 00:24:18;;;;;;;15.70;11.60;;;;;;;-0.93;100.00;102826.69;839107;23;882;-51
2022/01/12 00:33:12;;;;;;;15.38;12.05;;;;;;;-1.05;100.00;102813.78;835527;23;943;-53
2022/01/12 00:33:32;;;;;;;16.55;12.00;;;;;;;-1.05;100.00;102815.47;830249;23;4649;-51
2022/01/12 00:33:53;;;;;;;17.35;11.68;;;;;;;-1.10;100.00;102817.66;830211;23;1273;-51
2022/01/12 00:34:14;;;;;;;17.75;11.98;;;;;;;-1.11;100.00;102815.91;833621;23;1320;-54
2022/01/12 00:34:34;;;;;;;16.38;11.60;;;;;;;-1.09;100.00;102819.47;835172;23;800;-53
2022/01/12 00:34:54;;;;;;;14.97;11.53;;;;;;;-1.08;100.00;102815.22;835996;23;776;-57
2022/01/12 00:35:15;;;;;;;15.70;12.00;;;;;;;-1.07;100.00;102820.47;838026;23;1426;-54
2022/01/12 00:35:37;;;;;;;16.15;12.30;;;;;;;-1.06;100.00;102819.69;839921;23;844;-53
2022/01/12 00:35:58;;;;;;;15.43;11.52;;;;;;;-1.06;100.00;102821.38;844184;23;954;-51
2022/01/12 00:36:19;;;;;;;17.02;12.05;;;;;;;-1.09;100.00;102829.72;838697;23;1512;-51
2022/01/12 00:36:40;;;;;;;16.30;11.82;;;;;;;-1.10;100.00;102829.63;837769;23;4203;-52
2022/01/12 00:37:00;;;;;;;15.77;11.87;;;;;;;-1.13;100.00;102830.25;833747;23;1333;-52
2022/01/12 00:37:21;;;;;;;15.30;11.75;;;;;;;-1.15;100.00;102836.97;826311;23;1495;-51
2022/01/12 00:37:41;;;;;;;16.40;12.03;;;;;;;-1.15;100.00;102830.91;827804;23;876;-51
2022/01/12 00:38:02;;;;;;;14.95;11.60;;;;;;;-1.13;100.00;102831.94;830763;23;1157;-51
2022/01/12 00:38:25;;;;;;;15.37;12.13;;;;;;;-1.16;100.00;102830.03;837532;23;1563;-52
2022/01/12 00:38:45;;;;;;;16.08;11.85;;;;;;;-1.18;100.00;102834.13;834466;23;1239;-51
2022/01/12 00:39:07;;;;;;;16.85;11.82;;;;;;;-1.20;100.00;102833.13;834836;23;1228;-53
2022/01/12 00:39:27;;;;;;;16.77;11.77;;;;;;;-1.20;100.00;102835.72;837818;23;2104;-51
2022/01/12 00:39:48;;;;;;;16.23;11.70;;;;;;;-1.20;100.00;102838.28;838779;23;4470;-51
2022/01/12 00:40:08;;;;;;;16.50;11.77;;;;;;;-1.18;100.00;102838.38;842579;23;938;-51
2022/01/12 00:40:29;;;;;;;17.17;11.75;;;;;;;-1.21;100.00;102839.91;834381;23;1161;-52
2022/01/12 00:40:52;;;;;;;16.67;11.80;;;;;;;-1.19;100.00;102842.63;835673;23;793;-51
2022/01/12 00:41:16;;;;;;;16.80;12.20;;;;;;;-1.20;100.00;102843.41;837798;23;935;-54
2022/01/12 00:41:38;;;;;;;16.48;12.15;;;;;;;-1.21;100.00;102841.59;837859;23;1526;-51
2022/01/12 00:41:59;;;;;;;16.80;11.70;;;;;;;-1.21;100.00;102836.47;838693;23;1329;-51
2022/01/12 00:42:22;;;;;;;15.97;11.97;;;;;;;-1.21;100.00;102839.03;841488;23;836;-52
2022/01/12 00:42:43;;;;;;;16.75;12.27;;;;;;;-1.22;100.00;102845.84;841534;23;4327;-54
2022/01/12 00:43:06;;;;;;;16.90;11.73;;;;;;;-1.18;100.00;102846.09;835619;23;1247;-51
2022/01/12 00:43:29;;;;;;;16.30;11.93;;;;;;;-1.15;100.00;102851.44;830280;23;1516;-53
2022/01/12 00:43:56;;;;;;;16.98;11.68;;;;;;;-1.15;100.00;102847.22;831642;23;964;-52
2022/01/12 00:44:29;;;;;;;16.60;12.00;;;;;;;-1.13;100.00;102844.78;829991;23;1320;-49
2022/01/12 00:44:52;;;;;;;16.55;12.10;;;;;;;-1.11;100.00;102841.56;828748;23;901;-51
2022/01/12 00:45:13;;;;;;;15.43;11.18;;;;;;;-1.10;100.00;102847.59;833134;23;986;-51
2022/01/12 00:45:35;;;;;;;16.37;11.47;;;;;;;-1.10;100.00;102856.16;834143;23;4217;-51
2022/01/12 00:45:56;;;;;;;16.05;11.75;;;;;;;-1.11;100.00;102846.69;835455;23;961;-51
2022/01/12 00:46:17;;;;;;;16.92;12.25;;;;;;;-1.10;100.00;102845.91;841487;23;1414;-52
2022/01/12 00:46:39;;;;;;;16.23;11.60;;;;;;;-1.10;100.00;102843.34;843470;23;966;-51
2022/01/12 00:47:00;;;;;;;18.58;12.07;;;;;;;-1.10;100.00;102845.91;842516;23;815;-52
2022/01/12 00:47:20;;;;;;;17.13;12.05;;;;;;;-1.10;100.00;102842.44;837368;23;810;-51
2022/01/12 00:47:41;;;;;;;15.20;11.67;;;;;;;-1.10;100.00;102843.34;839740;23;662;-51
2022/01/12 00:48:01;;;;;;;15.20;11.60;;;;;;;-1.09;100.00;102841.69;838550;23;1082;-52
2022/01/12 00:48:22;;;;;;;15.35;11.65;;;;;;;-1.09;100.00;102841.69;833614;23;1253;-51
2022/01/12 00:48:44;;;;;;;16.20;11.75;;;;;;;-1.09;100.00;102836.53;834385;23;4412;-51
2022/01/12 00:49:05;;;;;;;16.10;11.48;;;;;;;-1.08;100.00;102843.44;834840;23;1370;-52
2022/01/12 00:49:25;;;;;;;14.48;11.27;;;;;;;-1.09;100.00;102840.00;839572;23;820;-51
2022/01/12 00:49:46;;;;;;;15.50;11.15;;;;;;;-1.09;100.00;102837.44;837691;23;792;-54
2022/01/12 00:50:07;;;;;;;15.20;11.27;;;;;;;-1.08;100.00;102839.22;833893;23;2377;-52
2022/01/12 00:50:27;;;;;;;15.32;11.35;;;;;;;-1.09;100.00;102842.56;838235;23;862;-55
2022/01/12 00:50:47;;;;;;;14.38;11.05;;;;;;;-1.07;100.00;102834.97;838289;23;1122;-51
2022/01/12 00:51:11;;;;;;;14.47;11.20;;;;;;;-1.07;100.00;102833.28;838537;23;1938;-52
2022/01/12 00:51:33;;;;;;;16.70;11.55;;;;;;;-1.05;100.00;102838.56;837947;23;4246;-51
2022/01/12 00:51:54;;;;;;;17.80;12.05;;;;;;;-1.06;100.00;102839.34;840955;23;721;-54
2022/01/12 00:52:14;;;;;;;16.08;11.68;;;;;;;-1.05;100.00;102833.44;837681;23;942;-52
2022/01/12 00:52:35;;;;;;;15.57;11.40;;;;;;;-1.06;100.00;102835.09;835700;23;749;-51
2022/01/12 00:52:56;;;;;;;15.07;11.43;;;;;;;-1.05;100.00;102839.47;835616;23;764;-52
2022/01/12 00:53:18;;;;;;;14.93;11.60;;;;;;;-1.06;100.00;102829.06;835862;23;992;-51
2022/01/12 00:53:39;;;;;;;15.30;11.75;;;;;;;-1.08;100.00;102834.09;835833;23;753;-54
2022/01/12 00:54:02;;;;;;;14.68;11.15;;;;;;;-1.10;100.00;102829.63;835154;23;1481;-52
2022/01/12 00:54:23;;;;;;;15.73;11.15;;;;;;;-1.13;100.00;102832.84;838077;23;804;-52
2022/01/12 00:54:45;;;;;;;16.00;11.23;;;;;;;-1.16;100.00;102829.13;837876;23;4359;-51
2022/01/12 00:55:06;;;;;;;16.15;11.27;;;;;;;-1.18;100.00;102829.00;839961;23;1021;-55
2022/01/12 00:55:27;;;;;;;15.07;11.18;;;;;;;-1.18;100.00;102831.56;834348;23;1351;-51
2022/01/12 00:55:47;;;;;;;15.20;11.03;;;;;;;-1.17;100.00;102838.50;835585;23;753;-51
2022/01/12 00:56:07;;;;;;;14.63;11.10;;;;;;;-1.16;100.00;102835.16;835692;23;1069;-53
2022/01/12 00:56:28;;;;;;;15.87;11.63;;;;;;;-1.15;100.00;102834.41;830380;23;1167;-51
2022/01/12 00:56:48;;;;;;;17.10;11.68;;;;;;;-1.13;100.00;102825.13;831806;23;927;-51
2022/01/12 00:57:09;;;;;;;16.02;11.60;;;;;;;-1.14;100.00;102825.91;830404;23;1362;-52
2022/01/12 00:57:30;;;;;;;14.93;11.57;;;;;;;-1.16;100.00;102817.19;834907;23;852;-51
2022/01/12 00:57:55;;;;;;;14.15;11.00;;;;;;;-1.18;100.00;102818.75;830246;23;4967;-54
2022/01/12 00:58:15;;;;;;;15.10;11.48;;;;;;;-1.19;100.00;102816.97;834346;23;899;-52
2022/01/12 00:58:36;;;;;;;14.75;11.05;;;;;;;-1.18;100.00;102821.31;839995;23;836;-52
2022/01/12 00:58:56;;;;;;;15.03;11.37;;;;;;;-1.17;100.00;102823.09;838546;23;908;-54
2022/01/12 00:59:17;;;;;;;15.48;11.35;;;;;;;-1.16;100.00;102821.41;838464;23;1188;-53
2022/01/12 00:59:38;;;;;;;15.38;11.18;;;;;;;-1.17;100.00;102823.09;837956;23;1377;-54
2022/01/12 00:59:59;;;;;;;13.70;10.93;;;;;;;-1.22;100.00;102820.19;840116;23;840;-54
2022/01/12 01:00:21;;;;;;;15.43;10.73;;;;;;;-1.18;100.00;102829.00;839124;23;800;-54
2022/01/12 01:00:41;;;;;;;16.35;11.27;;;;;;;-1.23;100.00;102828.66;833740;23;4219;-52
2022/01/12 01:01:03;;;;;;;16.13;11.60;;;;;;;-1.29;100.00;102830.72;835843;23;757;-53
2022/01/12 01:01:24;;;;;;;15.25;11.40;;;;;;;-1.30;100.00;102834.09;834181;23;765;-53
2022/01/12 01:01:45;;;;;;;15.68;11.18;;;;;;;-1.26;100.00;102830.06;835668;23;992;-52
2022/01/12 01:02:05;;;;;;;15.47;11.30;;;;;;;-1.28;100.00;102835.09;838049;23;1318;-55
2022/01/12 01:02:28;;;;;;;15.77;11.50;;;;;;;-1.28;100.00;102836.78;835306;23;1327;-51
2022/01/12 01:02:48;;;;;;;16.07;11.57;;;;;;;-1.31;100.00;102840.00;839618;23;847;-52
2022/01/12 01:03:09;;;;;;;15.03;11.17;;;;;;;-1.33;100.00;102845.78;838344;23;1116;-52
2022/01/12 01:03:31;;;;;;;14.50;10.77;;;;;;;-1.35;100.00;102848.22;837844;23;4207;-52
2022/01/12 01:03:52;;;;;;;15.70;11.10;;;;;;;-1.38;100.00;102846.31;837164;23;1167;-51
2022/01/12 01:04:14;;;;;;;15.15;10.90;;;;;;;-1.39;100.00;102854.78;834611;23;1354;-54
2022/01/12 01:04:34;;;;;;;14.80;11.13;;;;;;;-1.37;100.00;102855.81;838686;23;796;-52
2022/01/12 01:04:56;;;;;;;15.98;10.95;;;;;;;-1.34;100.00;102854.25;837292;23;1491;-51
2022/01/12 01:05:20;;;;;;;15.00;10.98;;;;;;;-1.31;100.00;102857.06;830495;23;1688;-52
2022/01/12 01:05:41;;;;;;;15.75;11.90;;;;;;;-1.33;100.00;102856.03;829751;23;955;-59
2022/01/12 01:06:02;;;;;;;16.50;11.77;;;;;;;-1.34;100.00;102860.28;831489;23;832;-51
2022/01/12 01:06:23;;;;;;;16.33;11.93;;;;;;;-1.34;100.00;102864.50;834620;23;745;-53
2022/01/12 01:06:43;;;;;;;14.68;11.55;;;;;;;-1.34;100.00;102872.19;835386;23;4267;-52
2022/01/12 01:07:04;;;;;;;14.45;11.27;;;;;;;-1.34;100.00;102864.50;835675;23;1789;-54
2022/01/12 01:07:24;;;;;;;16.35;11.60;;;;;;;-1.33;100.00;102869.78;833676;23;1435;-51
2022/01/12 01:07:45;;;;;;;16.10;11.60;;;;;;;-1.32;100.00;102868.09;839549;23;891;-53
2022/01/12 01:08:05;;;;;;;16.58;11.93;;;;;;;-1.31;100.00;102869.91;835594;23;784;-57
2022/01/12 01:08:26;;;;;;;18.27;12.03;;;;;;;-1.29;100.00;102874.34;833637;23;1603;-55
2022/01/12 01:08:51;;;;;;;16.63;11.52;;;;;;;-1.28;100.00;102865.00;834335;23;1380;-51
2022/01/12 01:09:15;;;;;;;13.60;11.18;;;;;;;-1.25;100.00;102870.38;834329;23;1346;-51
2022/01/12 01:09:42;;;;;;;13.93;11.23;;;;;;;-1.22;100.00;102861.25;829667;23;4214;-54
2022/01/12 01:10:06;;;;;;;14.57;10.80;;;;;;;-1.17;100.00;102865.84;830601;23;918;-54
2022/01/12 01:11:05;;;;;;;15.60;11.38;;;;;;;-1.16;100.00;102865.97;829375;23;1909;-52
2022/01/12 01:11:26;;;;;;;15.45;11.10;;;;;;;-1.15;100.00;102862.63;827185;23;1180;-55
2022/01/12 01:11:50;;;;;;;16.05;11.43;;;;;;;-1.13;100.00;102866.19;834440;23;1146;-53
2022/01/12 01:12:11;;;;;;;14.68;11.55;;;;;;;-1.14;100.00;102863.53;835598;23;841;-55
2022/01/12 01:12:35;;;;;;;14.18;11.10;;;;;;;-1.12;100.00;102867.09;837707;23;4322;-53
2022/01/12 01:12:56;;;;;;;15.18;10.77;;;;;;;-1.13;100.00;102861.06;835897;23;1269;-53
2022/01/12 01:13:23;;;;;;;14.10;10.80;;;;;;;-1.11;100.00;102863.75;838234;23;1172;-52
2022/01/12 01:14:01;;;;;;;14.50;10.50;;;;;;;-1.12;100.00;102860.31;834515;23;1079;-51
2022/01/12 01:14:36;;;;;;;15.27;10.82;;;;;;;-1.11;100.00;102863.75;833779;23;1096;-54
2022/01/12 01:15:18;;;;;;;14.45;10.25;;;;;;;-1.11;100.00;102864.66;829965;23;1031;-51
2022/01/12 01:16:29;;;;;;;13.75;10.63;;;;;;;-1.14;100.00;102859.28;832387;23;4333;-51
2022/01/12 01:16:29;;;;;;;13.40;10.60;;;;;;;-1.15;100.00;102856.59;834593;23;1338;-52
2022/01/12 01:25:31;;;;;;;18.55;11.68;;;;;;;-1.51;100.00;102855.47;842454;23;943;-52
2022/01/12 01:25:51;;;;;;;14.68;11.20;;;;;;;-1.47;100.00;102849.81;836476;23;1304;-52
2022/01/12 01:26:15;;;;;;;14.93;11.35;;;;;;;-1.44;100.00;102850.06;826516;23;1301;-52
2022/01/12 01:26:35;;;;;;;16.55;11.50;;;;;;;-1.43;100.00;102850.16;826628;23;963;-51
2022/01/12 01:26:57;;;;;;;15.18;11.02;;;;;;;-1.40;100.00;102860.69;826454;23;1253;-52
2022/01/12 01:27:20;;;;;;;15.00;11.18;;;;;;;-1.38;100.00;102851.44;830029;23;1586;-53
2022/01/12 01:27:40;;;;;;;15.23;11.30;;;;;;;-1.34;100.00;102855.16;829881;23;4391;-51
2022/01/12 01:28:02;;;;;;;15.13;11.27;;;;;;;-1.32;100.00;102855.28;834392;23;828;-51
2022/01/12 01:28:23;;;;;;;14.93;11.32;;;;;;;-1.41;100.00;102866.59;833440;23;1308;-51
2022/01/12 01:28:43;;;;;;;14.90;11.30;;;;;;;-1.42;100.00;102861.34;831515;23;1155;-53
2022/01/12 01:29:04;;;;;;;15.17;11.00;;;;;;;-1.42;100.00;102866.47;829873;23;1536;-51
2022/01/12 01:29:25;;;;;;;15.00;10.98;;;;;;;-1.43;100.00;102870.69;830178;23;761;-51
2022/01/12 01:29:47;;;;;;;15.13;11.00;;;;;;;-1.44;100.00;102874.06;833702;23;852;-52
2022/01/12 01:30:08;;;;;;;15.30;11.20;;;;;;;-1.44;100.00;102871.50;835870;23;962;-51
2022/01/12 01:30:29;;;;;;;15.10;10.90;;;;;;;-1.45;100.00;102871.38;834733;23;1352;-52
2022/01/12 01:30:49;;;;;;;15.68;10.77;;;;;;;-1.46;100.00;102878.16;838587;23;4464;-51
2022/01/12 01:31:11;;;;;;;15.93;10.80;;;;;;;-1.46;100.00;102874.72;841598;23;1893;-53
2022/01/12 01:31:33;;;;;;;16.17;11.00;;;;;;;-1.44;100.00;102879.19;838863;23;776;-52
2022/01/12 01:31:54;;;;;;;15.68;10.88;;;;;;;-1.45;100.00;102885.09;834027;23;1308;-54
2022/01/12 01:32:15;;;;;;;15.20;10.90;;;;;;;-1.46;100.00;102888.41;834442;23;808;-51
2022/01/12 01:32:37;;;;;;;14.52;11.10;;;;;;;-1.45;100.00;102879.97;834131;23;1370;-51
2022/01/12 01:33:04;;;;;;;15.15;11.27;;;;;;;-1.43;100.00;102890.34;829535;23;831;-52
2022/01/12 01:33:27;;;;;;;15.40;11.00;;;;;;;-1.41;100.00;102889.69;826366;23;1208;-53
2022/01/12 01:33:47;;;;;;;13.23;10.52;;;;;;;-1.38;100.00;102891.59;832264;23;4458;-51
2022/01/12 01:34:10;;;;;;;13.93;10.60;;;;;;;-1.38;100.00;102887.34;830495;23;1182;-52
2022/01/12 01:34:32;;;;;;;14.45;11.20;;;;;;;-1.38;100.00;102894.19;833695;23;1140;-52
2022/01/12 01:34:54;;;;;;;15.82;11.25;;;;;;;-1.40;100.00;102896.63;836710;23;1232;-52
2022/01/12 01:35:15;;;;;;;14.56;10.88;;;;;;;-1.41;100.00;102905.09;838367;23;1329;-51
2022/01/12 01:35:43;;;;;;;14.30;11.17;;;;;;;-1.41;100.00;102901.63;837864;23;741;-53
2022/01/12 01:36:04;;;;;;;15.65;11.23;;;;;;;-1.38;100.00;102907.88;836884;23;851;-53
2022/01/12 01:36:27;;;;;;;14.97;10.80;;;;;;;-1.36;100.00;102908.00;838436;23;1508;-54
2022/01/12 01:36:53;;;;;;;15.52;11.23;;;;;;;-1.32;100.00;102909.16;834726;23;4227;-52
2022/01/12 01:37:16;;;;;;;15.25;10.80;;;;;;;-1.31;100.00;102910.97;837925;23;1252;-51
2022/01/12 01:37:40;;;;;;;14.45;10.75;;;;;;;-1.28;100.00;102908.63;838456;23;1390;-52
2022/01/12 01:38:02;;;;;;;13.70;10.85;;;;;;;-1.27;100.00;102913.88;833872;23;1383;-51
2022/01/12 01:38:23;;;;;;;14.55;10.73;;;;;;;-1.26;100.00;102905.41;834214;23;1495;-51
2022/01/12 01:38:47;;;;;;;15.48;11.20;;;;;;;-1.25;100.00;102912.31;838540;23;1227;-52
2022/01/12 01:39:10;;;;;;;15.20;11.10;;;;;;;-1.24;100.00;102896.16;836418;23;1135;-51
2022/01/12 01:39:30;;;;;;;15.23;10.88;;;;;;;-1.23;100.00;102907.34;834000;23;4294;-52
2022/01/12 01:39:53;;;;;;;13.70;10.80;;;;;;;-1.22;100.00;102902.31;836253;23;1430;-52
2022/01/12 01:40:14;;;;;;;14.35;10.80;;;;;;;-1.21;100.00;102903.22;835989;23;1148;-51
2022/01/12 01:40:41;;;;;;;14.03;10.40;;;;;;;-1.22;100.00;102906.53;836697;23;1113;-52
2022/01/12 01:41:02;;;;;;;15.10;10.93;;;;;;;-1.22;100.00;102902.31;831440;23;1304;-51
2022/01/12 01:41:22;;;;;;;13.87;10.70;;;;;;;-1.22;100.00;102901.41;833765;23;1413;-51
2022/01/12 01:41:49;;;;;;;14.97;10.37;;;;;;;-1.22;100.00;102901.41;836072;23;1441;-52
2022/01/12 01:42:20;;;;;;;14.18;10.50;;;;;;;-1.22;100.00;102892.06;836728;23;881;-52
2022/01/12 01:43:08;;;;;;;15.48;10.90;;;;;;;-1.22;100.00;102907.47;838369;23;4534;-51
2022/01/12 01:44:20;;;;;;;14.57;10.80;;;;;;;-1.21;100.00;102898.97;834713;23;3384;-51
2022/01/12 01:53:21;;;;;;;14.52;10.80;;;;;;;-1.22;100.00;102891.13;830983;23;2192;-52
2022/01/12 01:53:42;;;;;;;14.43;10.45;;;;;;;-1.19;100.00;102886.28;826272;23;1544;-51
2022/01/12 01:54:03;;;;;;;14.23;10.70;;;;;;;-1.18;100.00;102887.16;822863;24;1257;-52
2022/01/12 01:54:24;;;;;;;15.18;10.93;;;;;;;-1.19;100.00;102886.28;827792;23;765;-52
2022/01/12 01:54:45;;;;;;;14.60;10.70;;;;;;;-1.18;100.00;102885.47;829291;23;4239;-51
2022/01/12 01:55:07;;;;;;;14.98;10.80;;;;;;;-1.19;100.00;102888.84;830068;23;1621;-55
2022/01/12 01:55:30;;;;;;;15.77;10.75;;;;;;;-1.21;100.00;102891.25;830981;23;1397;-52
2022/01/12 01:55:51;;;;;;;14.72;11.22;;;;;;;-1.17;100.00;102896.66;831612;23;1149;-52
2022/01/12 01:56:12;;;;;;;14.37;10.97;;;;;;;-1.18;100.00;102897.41;830345;23;1110;-53
2022/01/12 01:56:33;;;;;;;16.08;11.15;;;;;;;-1.19;100.00;102901.69;822492;23;1448;-53
2022/01/12 01:56:54;;;;;;;15.30;11.23;;;;;;;-1.22;100.00;102892.06;826556;23;1382;-51
2022/01/12 01:57:15;;;;;;;14.55;11.20;;;;;;;-1.21;100.00;102896.38;827711;23;1340;-53
2022/01/12 01:57:36;;;;;;;14.33;11.07;;;;;;;-1.24;100.00;102896.16;830086;23;4319;-51
2022/01/12 01:57:57;;;;;;;13.02;10.13;;;;;;;-1.24;100.00;102898.72;834030;23;1795;-53
2022/01/12 01:58:18;;;;;;;14.43;10.10;;;;;;;-1.22;100.00;102902.31;837281;23;1165;-53
2022/01/12 01:58:38;;;;;;;14.30;10.30;;;;;;;-1.20;100.00;102899.88;831005;23;966;-53
2022/01/12 01:58:59;;;;;;;12.98;10.27;;;;;;;-1.22;100.00;102902.31;823380;23;1355;-51
2022/01/12 01:59:21;;;;;;;13.80;10.55;;;;;;;-1.23;100.00;102900.53;826214;23;1734;-51
2022/01/12 01:59:45;;;;;;;13.10;10.52;;;;;;;-1.22;100.00;102909.09;829186;23;1475;-52
2022/01/12 02:00:09;;;;;;;13.90;10.98;;;;;;;-1.23;100.00;102899.63;823442;23;1345;-51
2022/01/12 02:00:44;;;;;;;15.00;10.80;;;;;;;-1.24;100.00;102898.72;829993;23;4302;-55
2022/01/12 02:01:09;;;;;;;15.18;10.63;;;;;;;-1.21;100.00;102904.09;837884;23;1804;-51
2022/01/12 02:01:35;;;;;;;14.27;10.98;;;;;;;-1.21;100.00;102904.09;834151;23;1556;-51
2022/01/12 02:01:56;;;;;;;14.35;10.75;;;;;;;-1.21;100.00;102900.63;829878;23;872;-52
2022/01/12 02:02:17;;;;;;;14.32;10.77;;;;;;;-1.21;100.00;102898.97;830419;23;1638;-51
2022/01/12 02:02:38;;;;;;;14.50;10.77;;;;;;;-1.18;100.00;102905.13;834066;23;1384;-52
2022/01/12 02:03:00;;;;;;;13.47;10.90;;;;;;;-1.19;100.00;102909.38;834126;23;1315;-54
2022/01/12 02:03:33;;;;;;;14.35;11.38;;;;;;;-1.22;100.00;102907.47;833354;23;4221;-53
2022/01/12 02:04:01;;;;;;;14.88;11.02;;;;;;;-1.21;100.00;102908.34;838468;23;1507;-51
2022/01/12 02:04:22;;;;;;;14.38;10.70;;;;;;;-1.18;100.00;102908.56;832956;23;1109;-52
2022/01/12 02:04:43;;;;;;;15.20;11.03;;;;;;;-1.20;100.00;102907.56;831427;23;1666;-52
2022/01/12 02:05:04;;;;;;;15.25;11.10;;;;;;;-1.21;100.00;102914.34;830354;23;1311;-52
2022/01/12 02:05:25;;;;;;;14.30;10.63;;;;;;;-1.21;100.00;102909.22;825604;23;1174;-57
2022/01/12 02:05:46;;;;;;;13.88;10.75;;;;;;;-1.19;100.00;102906.81;822691;23;1233;-52
2022/01/12 02:06:08;;;;;;;14.43;10.77;;;;;;;-1.17;100.00;102906.94;830574;23;1355;-51
2022/01/12 02:06:29;;;;;;;15.27;10.88;;;;;;;-1.18;100.00;102908.56;833688;23;1107;-53
2022/01/12 02:06:50;;;;;;;16.00;11.05;;;;;;;-1.18;100.00;102911.13;837881;23;4495;-51
2022/01/12 02:07:11;;;;;;;16.30;11.88;;;;;;;-1.18;100.00;102913.72;833772;23;1261;-52
2022/01/12 02:07:35;;;;;;;14.87;11.10;;;;;;;-1.17;100.00;102901.78;825652;23;1450;-55
2022/01/12 02:07:57;;;;;;;14.13;10.98;;;;;;;-1.17;100.00;102905.25;822375;23;1387;-51
2022/01/12 02:08:20;;;;;;;14.68;10.70;;;;;;;-1.15;100.00;102903.72;818922;23;1598;-52
2022/01/12 02:09:06;;;;;;;15.32;10.98;;;;;;;-1.12;100.00;102909.06;828853;23;1258;-53
2022/01/12 02:09:42;;;;;;;14.75;10.15;;;;;;;-1.10;100.00;102904.06;828703;23;4221;-51
2022/01/12 02:10:11;;;;;;;13.80;9.90;;;;;;;-1.08;100.00;102905.97;828328;23;1392;-53